createdAt,value
2022-11-05T00:00:48.867Z,17.00
2022-11-05T00:03:15.403Z,17.10
2022-11-05T00:05:41.972Z,17.10
2022-11-05T00:08:08.512Z,17.10
2022-11-05T00:10:34.966Z,17.20
2022-11-05T00:13:01.451Z,17.30
2022-11-05T00:15:27.919Z,17.30
2022-11-05T00:17:54.381Z,17.30
2022-11-05T00:20:20.867Z,17.30
2022-11-05T00:22:47.347Z,17.40
2022-11-05T00:25:13.841Z,17.40
2022-11-05T00:27:40.314Z,17.30
2022-11-05T00:30:06.801Z,17.30
2022-11-05T00:32:33.283Z,17.30
2022-11-05T00:34:59.757Z,17.30
2022-11-05T00:37:26.229Z,17.20
2022-11-05T00:39:52.682Z,17.10
2022-11-05T00:42:19.153Z,17.10
2022-11-05T00:44:45.614Z,17.00
2022-11-05T00:47:12.093Z,17.10
2022-11-05T00:49:38.564Z,17.10
2022-11-05T00:52:05.050Z,17.20
2022-11-05T00:54:31.531Z,17.30
2022-11-05T00:57:03.421Z,17.20
2022-11-05T00:59:31.027Z,17.30
2022-11-05T01:01:57.601Z,17.30
2022-11-05T01:04:24.138Z,17.30
2022-11-05T01:06:50.647Z,17.20
2022-11-05T01:09:17.147Z,17.20
2022-11-05T01:11:43.628Z,17.20
2022-11-05T01:14:10.116Z,17.20
2022-11-05T01:16:36.590Z,17.20
2022-11-05T01:19:03.051Z,17.00
2022-11-05T01:21:29.519Z,17.20
2022-11-05T01:23:56.003Z,17.20
2022-11-05T01:26:22.485Z,17.20
2022-11-05T01:28:48.989Z,17.20
2022-11-05T01:31:15.489Z,17.20
2022-11-05T01:33:41.971Z,17.30
2022-11-05T01:36:08.451Z,17.20
2022-11-05T01:38:34.932Z,17.20
2022-11-05T01:41:01.410Z,17.30
2022-11-05T01:43:27.890Z,17.20
2022-11-05T01:45:54.369Z,17.20
2022-11-05T01:48:20.842Z,17.00
2022-11-05T01:50:47.320Z,17.00
2022-11-05T01:53:14.069Z,17.10
2022-11-05T01:55:40.675Z,17.20
2022-11-05T01:58:07.176Z,17.20
2022-11-05T02:00:33.655Z,17.10
2022-11-05T02:03:00.251Z,17.20
2022-11-05T02:05:26.864Z,17.30
2022-11-05T02:07:53.337Z,17.20
2022-11-05T02:10:19.820Z,17.20
2022-11-05T02:12:46.299Z,17.20
2022-11-05T02:15:12.787Z,17.10
2022-11-05T02:17:39.251Z,17.20
2022-11-05T02:20:05.718Z,17.20
2022-11-05T02:22:32.197Z,17.20
2022-11-05T02:24:58.662Z,17.20
2022-11-05T02:27:25.126Z,17.20
2022-11-05T02:29:51.607Z,17.20
2022-11-05T02:32:18.066Z,17.20
2022-11-05T02:34:44.544Z,17.20
2022-11-05T02:37:11.026Z,17.20
2022-11-05T02:39:37.498Z,17.30
2022-11-05T02:42:05.313Z,17.20
2022-11-05T02:44:31.886Z,17.20
2022-11-05T02:46:58.361Z,17.30
2022-11-05T02:49:24.831Z,17.20
2022-11-05T02:51:51.313Z,17.20
2022-11-05T02:54:17.786Z,17.20
2022-11-05T02:56:44.246Z,17.20
2022-11-05T02:59:10.706Z,17.20
2022-11-05T03:01:37.275Z,17.20
2022-11-05T03:04:03.789Z,17.20
2022-11-05T03:06:30.271Z,17.10
2022-11-05T03:08:56.754Z,17.10
2022-11-05T03:11:23.228Z,17.10
2022-11-05T03:13:49.718Z,17.20
2022-11-05T03:16:16.187Z,17.20
2022-11-05T03:18:42.665Z,17.10
2022-11-05T03:21:09.151Z,17.10
2022-11-05T03:23:35.659Z,17.10
2022-11-05T03:26:02.137Z,17.00
2022-11-05T03:28:28.621Z,17.10
2022-11-05T03:30:55.097Z,17.10
2022-11-05T03:33:21.561Z,17.20
2022-11-05T03:35:48.043Z,17.20
2022-11-05T03:38:14.510Z,17.10
2022-11-05T03:40:40.978Z,17.10
2022-11-05T03:43:07.499Z,17.10
2022-11-05T03:45:34.016Z,17.20
2022-11-05T03:48:00.488Z,17.20
2022-11-05T03:50:26.971Z,17.10
2022-11-05T03:52:53.457Z,17.20
2022-11-05T03:55:19.943Z,17.10
2022-11-05T03:57:46.408Z,17.10
2022-11-05T04:00:12.886Z,17.10
2022-11-05T04:02:39.515Z,17.10
2022-11-05T04:05:06.097Z,17.00
2022-11-05T04:07:32.567Z,17.10
2022-11-05T04:09:59.061Z,17.10
2022-11-05T04:12:25.518Z,17.00
2022-11-05T04:14:51.991Z,17.00
2022-11-05T04:17:18.475Z,16.90
2022-11-05T04:19:44.958Z,17.00
2022-11-05T04:22:11.442Z,17.00
2022-11-05T04:24:37.966Z,16.90
2022-11-05T04:27:04.443Z,17.00
2022-11-05T04:29:30.933Z,17.00
2022-11-05T04:31:57.429Z,17.00
2022-11-05T04:34:23.920Z,17.00
2022-11-05T04:36:50.388Z,17.00
2022-11-05T04:39:16.841Z,17.00
2022-11-05T04:41:43.318Z,17.00
2022-11-05T04:44:09.782Z,17.00
2022-11-05T04:46:36.251Z,17.10
2022-11-05T04:49:02.722Z,17.00
2022-11-05T04:51:29.196Z,17.00
2022-11-05T04:53:55.666Z,17.00
2022-11-05T04:56:22.172Z,17.00
2022-11-05T04:58:48.656Z,17.10
2022-11-05T05:01:15.203Z,17.10
2022-11-05T05:03:41.713Z,17.10
2022-11-05T05:06:08.195Z,17.00
2022-11-05T05:08:34.664Z,17.00
2022-11-05T05:11:01.139Z,17.10
2022-11-05T05:13:27.606Z,17.10
2022-11-05T05:15:54.086Z,17.10
2022-11-05T05:18:20.559Z,17.10
2022-11-05T05:20:47.040Z,17.00
2022-11-05T05:23:13.760Z,17.00
2022-11-05T05:25:40.346Z,17.10
2022-11-05T05:28:06.806Z,17.10
2022-11-05T05:30:33.278Z,17.10
2022-11-05T05:32:59.732Z,17.00
2022-11-05T05:35:26.212Z,17.00
2022-11-05T05:37:52.686Z,16.90
2022-11-05T05:40:19.164Z,17.00
2022-11-05T05:42:45.642Z,16.90
2022-11-05T05:45:12.102Z,17.00
2022-11-05T05:47:38.578Z,17.00
2022-11-05T05:50:05.068Z,17.00
2022-11-05T05:52:31.544Z,16.90
2022-11-05T05:54:58.013Z,16.90
2022-11-05T05:57:24.500Z,16.90
2022-11-05T05:59:50.973Z,17.00
2022-11-05T06:02:17.531Z,17.00
2022-11-05T06:04:44.092Z,17.00
2022-11-05T06:07:10.582Z,17.00
2022-11-05T06:09:37.065Z,16.90
2022-11-05T06:12:03.532Z,16.90
2022-11-05T06:14:30.006Z,16.90
2022-11-05T06:16:56.485Z,17.00
2022-11-05T06:19:22.962Z,16.90
2022-11-05T06:21:49.433Z,17.00
2022-11-05T06:24:15.917Z,17.00
2022-11-05T06:26:42.414Z,17.00
2022-11-05T06:29:08.877Z,17.00
2022-11-05T06:31:35.362Z,16.90
2022-11-05T06:34:01.821Z,17.00
2022-11-05T06:36:28.304Z,17.00
2022-11-05T06:38:54.784Z,17.00
2022-11-05T06:41:21.266Z,17.00
2022-11-05T06:43:47.745Z,16.90
2022-11-05T06:46:14.213Z,17.00
2022-11-05T06:48:40.679Z,17.00
2022-11-05T06:51:07.169Z,17.00
2022-11-05T06:53:33.653Z,16.90
2022-11-05T06:56:00.133Z,16.90
2022-11-05T06:58:26.607Z,17.00
2022-11-05T07:00:53.126Z,17.00
2022-11-05T07:03:19.604Z,17.00
2022-11-05T07:05:46.091Z,16.90
2022-11-05T07:08:12.558Z,17.00
2022-11-05T07:10:39.054Z,16.90
2022-11-05T07:13:08.327Z,16.80
2022-11-05T07:15:35.285Z,16.80
2022-11-05T07:18:01.749Z,16.70
2022-11-05T07:20:33.278Z,16.60
2022-11-05T07:23:00.549Z,16.50
2022-11-05T07:25:27.035Z,16.50
2022-11-05T07:27:53.501Z,16.50
2022-11-05T07:30:19.975Z,16.70
2022-11-05T07:32:46.469Z,16.80
2022-11-05T07:35:12.949Z,16.90
2022-11-05T07:37:39.437Z,16.90
2022-11-05T07:40:05.927Z,16.90
2022-11-05T07:42:32.409Z,16.80
2022-11-05T07:44:58.868Z,16.70
2022-11-05T07:47:25.359Z,16.80
2022-11-05T07:49:51.831Z,16.80
2022-11-05T07:52:18.320Z,16.90
2022-11-05T07:54:44.805Z,17.00
2022-11-05T07:57:11.285Z,16.90
2022-11-05T07:59:37.765Z,16.80
2022-11-05T08:02:04.436Z,16.80
2022-11-05T08:04:31.045Z,16.50
2022-11-05T08:06:57.560Z,16.50
2022-11-05T08:09:24.032Z,16.60
2022-11-05T08:11:53.014Z,16.50
2022-11-05T08:14:19.784Z,16.50
2022-11-05T08:16:46.272Z,16.50
2022-11-05T08:19:12.756Z,16.50
2022-11-05T08:21:39.233Z,16.50
2022-11-05T08:24:05.703Z,16.70
2022-11-05T08:26:32.183Z,16.80
2022-11-05T08:28:58.641Z,16.60
2022-11-05T08:31:25.140Z,16.60
2022-11-05T08:33:51.631Z,16.80
2022-11-05T08:36:18.111Z,16.60
2022-11-05T08:38:44.582Z,16.50
2022-11-05T08:41:11.057Z,16.60
2022-11-05T08:43:37.535Z,16.50
2022-11-05T08:46:04.030Z,16.50
2022-11-05T08:48:30.493Z,16.50
2022-11-05T08:50:56.994Z,16.50
2022-11-05T08:53:23.484Z,16.50
2022-11-05T08:55:50.037Z,16.50
2022-11-05T08:58:16.563Z,16.40
2022-11-05T09:00:43.124Z,16.40
2022-11-05T09:03:10.132Z,16.50
2022-11-05T09:05:36.971Z,16.50
2022-11-05T09:08:03.452Z,16.50
2022-11-05T09:10:29.923Z,16.50
2022-11-05T09:12:56.411Z,16.50
2022-11-05T09:15:22.903Z,16.50
2022-11-05T09:17:49.397Z,16.40
2022-11-05T09:20:15.872Z,16.40
2022-11-05T09:22:43.555Z,16.50
2022-11-05T09:25:10.218Z,16.50
2022-11-05T09:27:36.701Z,16.50
2022-11-05T09:30:03.189Z,16.50
2022-11-05T09:32:29.662Z,16.50
2022-11-05T09:34:56.133Z,16.70
2022-11-05T09:37:22.622Z,16.80
2022-11-05T09:39:49.101Z,16.80
2022-11-05T09:42:15.597Z,16.70
2022-11-05T09:44:42.083Z,16.70
2022-11-05T09:47:08.564Z,16.60
2022-11-05T09:49:35.050Z,16.60
2022-11-05T09:52:01.514Z,16.70
2022-11-05T09:54:27.988Z,16.70
2022-11-05T09:56:54.480Z,16.70
2022-11-05T09:59:20.946Z,16.70
2022-11-05T10:01:47.568Z,16.80
2022-11-05T10:04:14.149Z,16.90
2022-11-05T10:06:40.628Z,16.80
2022-11-05T10:09:07.114Z,16.80
2022-11-05T10:11:33.616Z,16.70
2022-11-05T10:14:00.095Z,16.80
2022-11-05T10:16:26.572Z,16.60
2022-11-05T10:18:53.031Z,16.70
2022-11-05T10:21:32.279Z,16.70
2022-11-05T10:24:05.954Z,16.80
2022-11-05T10:26:32.442Z,16.80
2022-11-05T10:28:58.922Z,16.80
2022-11-05T10:31:25.397Z,16.80
2022-11-05T10:33:52.960Z,16.80
2022-11-05T10:36:21.052Z,16.80
2022-11-05T10:38:47.520Z,16.90
2022-11-05T10:41:14.008Z,16.90
2022-11-05T10:43:40.496Z,16.90
2022-11-05T10:46:06.990Z,16.90
2022-11-05T10:48:33.474Z,16.90
2022-11-05T10:50:59.960Z,17.00
2022-11-05T10:53:26.440Z,17.00
2022-11-05T10:55:52.930Z,17.00
2022-11-05T10:58:19.425Z,17.00
2022-11-05T11:00:46.011Z,17.00
2022-11-05T11:03:12.875Z,17.00
2022-11-05T11:05:39.690Z,16.90
2022-11-05T11:08:06.175Z,16.90
2022-11-05T11:10:32.651Z,17.00
2022-11-05T11:12:59.137Z,17.00
2022-11-05T11:15:25.623Z,17.00
2022-11-05T11:17:52.101Z,17.00
2022-11-05T11:20:18.638Z,17.00
2022-11-05T11:22:45.260Z,17.00
2022-11-05T11:25:11.726Z,17.10
2022-11-05T11:27:38.215Z,17.10
2022-11-05T11:30:04.725Z,17.10
2022-11-05T11:32:31.208Z,17.10
2022-11-05T11:34:57.688Z,17.00
2022-11-05T11:37:24.171Z,17.00
2022-11-05T11:39:50.664Z,17.00
2022-11-05T11:42:17.153Z,17.00
2022-11-05T11:44:43.617Z,17.10
2022-11-05T11:47:10.096Z,17.10
2022-11-05T11:49:36.586Z,17.10
2022-11-05T11:52:03.082Z,17.10
2022-11-05T11:54:29.567Z,17.00
2022-11-05T11:56:56.064Z,17.00
2022-11-05T11:59:35.084Z,17.10
2022-11-05T12:02:09.137Z,17.00
2022-11-05T12:04:35.685Z,17.00
2022-11-05T12:07:02.158Z,17.00
2022-11-05T12:09:28.631Z,17.00
2022-11-05T12:11:55.125Z,17.00
2022-11-05T12:14:21.600Z,17.00
2022-11-05T12:16:48.075Z,17.00
2022-11-05T12:19:14.540Z,17.00
2022-11-05T12:21:52.677Z,17.10
2022-11-05T12:24:19.686Z,17.00
2022-11-05T12:26:46.179Z,17.00
2022-11-05T12:29:18.889Z,17.00
2022-11-05T12:31:45.885Z,17.00
2022-11-05T12:34:12.368Z,17.00
2022-11-05T12:36:38.874Z,17.00
2022-11-05T12:39:05.344Z,17.10
2022-11-05T12:41:31.855Z,17.10
2022-11-05T12:43:58.330Z,17.00
2022-11-05T12:46:24.835Z,17.00
2022-11-05T12:48:51.312Z,17.00
2022-11-05T12:51:17.794Z,17.10
2022-11-05T12:53:44.272Z,17.10
2022-11-05T12:56:10.778Z,17.10
2022-11-05T12:58:37.250Z,17.10
2022-11-05T13:01:03.749Z,17.10
2022-11-05T13:03:30.322Z,17.00
2022-11-05T13:06:00.185Z,17.00
2022-11-05T13:08:29.482Z,17.00
2022-11-05T13:10:55.959Z,17.00
2022-11-05T13:13:22.432Z,16.90
2022-11-05T13:15:48.928Z,17.00
2022-11-05T13:18:15.382Z,16.90
2022-11-05T13:20:41.874Z,17.00
2022-11-05T13:23:08.457Z,17.00
2022-11-05T13:25:35.068Z,17.00
2022-11-05T13:28:01.546Z,17.00
2022-11-05T13:30:28.049Z,17.00
2022-11-05T13:32:54.531Z,17.00
2022-11-05T13:35:21.019Z,17.00
2022-11-05T13:37:47.506Z,17.00
2022-11-05T13:40:13.974Z,17.00
2022-11-05T13:42:40.471Z,17.00
2022-11-05T13:45:06.983Z,17.00
2022-11-05T13:47:33.437Z,17.00
2022-11-05T13:49:59.918Z,17.00
2022-11-05T13:52:26.404Z,17.00
2022-11-05T13:54:52.865Z,17.00
2022-11-05T13:57:21.196Z,17.00
2022-11-05T13:59:47.657Z,17.00
2022-11-05T14:02:14.294Z,17.00
2022-11-05T14:04:45.385Z,17.00
2022-11-05T14:07:11.873Z,17.10
2022-11-05T14:09:38.367Z,17.10
2022-11-05T14:12:04.844Z,17.00
2022-11-05T14:14:31.553Z,17.00
2022-11-05T14:16:58.082Z,17.00
2022-11-05T14:19:27.164Z,17.00
2022-11-05T14:21:53.657Z,17.00
2022-11-05T14:24:20.143Z,17.00
2022-11-05T14:26:46.629Z,17.00
2022-11-05T14:29:13.100Z,17.00
2022-11-05T14:32:08.246Z,17.00
2022-11-05T14:34:26.043Z,16.90
2022-11-05T14:36:52.521Z,17.00
2022-11-05T14:39:18.994Z,17.00
2022-11-05T14:41:45.471Z,17.00
2022-11-05T14:44:11.965Z,17.00
2022-11-05T14:46:38.456Z,16.90
2022-11-05T14:49:09.471Z,17.00
2022-11-05T14:51:36.294Z,17.00
2022-11-05T14:54:02.779Z,17.00
2022-11-05T14:56:29.248Z,17.00
2022-11-05T14:58:55.725Z,17.00
2022-11-05T15:01:22.296Z,17.00
2022-11-05T15:03:48.902Z,16.90
2022-11-05T15:06:15.412Z,16.90
2022-11-05T15:08:41.891Z,16.90
2022-11-05T15:11:08.381Z,16.90
2022-11-05T15:13:34.873Z,17.00
2022-11-05T15:16:01.364Z,17.00
2022-11-05T15:18:27.844Z,17.00
2022-11-05T15:20:54.326Z,17.00
2022-11-05T15:23:20.819Z,16.90
2022-11-05T15:25:52.747Z,17.00
2022-11-05T15:28:19.782Z,17.00
2022-11-05T15:30:46.259Z,17.00
2022-11-05T15:33:12.932Z,17.00
2022-11-05T15:35:39.681Z,16.90
2022-11-05T15:38:09.398Z,16.90
2022-11-05T15:40:35.875Z,16.90
2022-11-05T15:43:02.355Z,16.90
2022-11-05T15:45:28.875Z,16.90
2022-11-05T15:47:55.368Z,16.90
2022-11-05T15:50:21.857Z,16.90
2022-11-05T15:52:48.323Z,16.90
2022-11-05T15:55:14.835Z,16.90
2022-11-05T15:57:43.142Z,16.90
2022-11-05T16:00:11.757Z,16.90
2022-11-05T16:02:38.355Z,16.90
2022-11-05T16:05:04.917Z,16.90
2022-11-05T16:07:31.406Z,16.90
2022-11-05T16:09:57.989Z,16.90
2022-11-05T16:12:24.511Z,16.90
2022-11-05T16:14:50.975Z,16.90
2022-11-05T16:17:17.453Z,16.90
2022-11-05T16:19:43.971Z,16.90
2022-11-05T16:22:10.448Z,17.00
2022-11-05T16:24:36.921Z,17.00
2022-11-05T16:27:03.845Z,17.00
2022-11-05T16:29:30.541Z,17.00
2022-11-05T16:31:57.021Z,17.00
2022-11-05T16:34:23.506Z,16.90
2022-11-05T16:36:49.983Z,16.90
2022-11-05T16:39:16.451Z,16.90
2022-11-05T16:41:42.925Z,16.90
2022-11-05T16:44:09.397Z,16.90
2022-11-05T16:46:35.875Z,16.90
2022-11-05T16:49:02.359Z,16.90
2022-11-05T16:51:28.854Z,16.90
2022-11-05T16:53:55.346Z,16.90
2022-11-05T16:56:21.848Z,16.90
2022-11-05T16:58:48.315Z,16.90
2022-11-05T17:01:14.882Z,16.90
2022-11-05T17:03:41.392Z,16.90
2022-11-05T17:06:07.877Z,16.90
2022-11-05T17:08:34.342Z,16.90
2022-11-05T17:11:00.815Z,16.90
2022-11-05T17:13:27.300Z,16.80
2022-11-05T17:15:53.801Z,16.70
2022-11-05T17:18:21.803Z,16.80
2022-11-05T17:20:48.500Z,16.80
2022-11-05T17:23:15.236Z,16.80
2022-11-05T17:25:42.071Z,16.80
2022-11-05T17:28:08.607Z,16.80
2022-11-05T17:30:35.203Z,16.80
2022-11-05T17:33:01.752Z,16.80
2022-11-05T17:35:33.470Z,16.80
2022-11-05T17:37:59.958Z,16.80
2022-11-05T17:40:26.455Z,16.80
2022-11-05T17:42:52.918Z,16.90
2022-11-05T17:45:19.423Z,16.80
2022-11-05T17:47:45.904Z,16.90
2022-11-05T17:50:12.409Z,16.90
2022-11-05T17:52:38.936Z,16.70
2022-11-05T17:55:05.422Z,16.70
2022-11-05T17:57:31.881Z,16.80
2022-11-05T17:59:58.371Z,16.70
2022-11-05T18:02:24.932Z,16.80
2022-11-05T18:04:51.534Z,16.70
2022-11-05T18:07:18.009Z,16.80
2022-11-05T18:09:44.509Z,16.70
2022-11-05T18:12:10.987Z,16.60
2022-11-05T18:14:37.469Z,16.60
2022-11-05T18:17:03.962Z,16.80
2022-11-05T18:19:30.449Z,16.70
2022-11-05T18:21:56.925Z,16.80
2022-11-05T18:24:23.407Z,16.70
2022-11-05T18:26:49.900Z,16.80
2022-11-05T18:29:16.379Z,16.80
2022-11-05T18:31:42.858Z,16.60
2022-11-05T18:34:09.342Z,16.70
2022-11-05T18:36:35.889Z,16.70
2022-11-05T18:39:02.368Z,16.60
2022-11-05T18:41:28.864Z,16.70
2022-11-05T18:43:55.341Z,16.70
2022-11-05T18:46:51.276Z,16.60
2022-11-05T18:49:08.305Z,16.60
2022-11-05T18:51:34.818Z,16.60
2022-11-05T18:54:01.289Z,16.60
2022-11-05T18:56:27.791Z,16.60
2022-11-05T18:59:14.570Z,16.60
2022-11-05T19:01:40.858Z,16.60
2022-11-05T19:04:07.414Z,16.60
2022-11-05T19:06:33.903Z,16.60
2022-11-05T19:09:00.387Z,16.60
2022-11-05T19:11:26.878Z,16.60
2022-11-05T19:13:53.359Z,16.60
2022-11-05T19:16:19.849Z,16.60
2022-11-05T19:18:46.340Z,16.60
2022-11-05T19:21:12.836Z,16.60
2022-11-05T19:23:39.306Z,16.70
2022-11-05T19:26:05.794Z,16.60
2022-11-05T19:28:32.249Z,16.60
2022-11-05T19:30:58.764Z,16.70
2022-11-05T19:33:25.235Z,16.60
2022-11-05T19:35:51.722Z,16.60
2022-11-05T19:38:18.187Z,16.70
2022-11-05T19:40:44.678Z,16.70
2022-11-05T19:43:11.165Z,16.70
2022-11-05T19:45:44.678Z,16.70
2022-11-05T19:48:17.799Z,16.60
2022-11-05T19:50:45.779Z,16.70
2022-11-05T19:53:12.271Z,16.60
2022-11-05T19:55:38.760Z,16.60
2022-11-05T19:58:05.240Z,16.50
2022-11-05T20:00:31.716Z,16.60
2022-11-05T20:02:58.253Z,16.60
2022-11-05T20:05:24.843Z,16.60
2022-11-05T20:07:53.025Z,16.60
2022-11-05T20:10:19.826Z,16.50
2022-11-05T20:12:46.327Z,16.50
2022-11-05T20:15:12.815Z,16.40
2022-11-05T20:17:39.299Z,16.50
2022-11-05T20:20:05.770Z,16.50
2022-11-05T20:22:32.264Z,16.60
2022-11-05T20:24:58.749Z,16.50
2022-11-05T20:27:25.239Z,16.50
2022-11-05T20:29:51.707Z,16.60
2022-11-05T20:32:18.186Z,16.50
2022-11-05T20:34:44.666Z,16.50
2022-11-05T20:37:11.141Z,16.60
2022-11-05T20:39:37.619Z,16.60
2022-11-05T20:42:04.091Z,16.60
2022-11-05T20:44:30.564Z,16.70
2022-11-05T20:46:57.032Z,16.60
2022-11-05T20:49:25.698Z,16.50
2022-11-05T20:51:52.533Z,16.60
2022-11-05T20:54:19.007Z,16.60
2022-11-05T20:56:45.512Z,16.50
2022-11-05T20:59:11.981Z,16.50
2022-11-05T21:01:38.589Z,16.50
2022-11-05T21:04:05.172Z,16.50
2022-11-05T21:06:31.640Z,16.60
2022-11-05T21:08:58.121Z,16.60
2022-11-05T21:11:24.586Z,16.50
2022-11-05T21:13:51.068Z,16.50
2022-11-05T21:16:18.522Z,16.60
2022-11-05T21:18:45.248Z,16.60
2022-11-05T21:21:11.744Z,16.60
2022-11-05T21:23:38.221Z,16.60
2022-11-05T21:26:04.716Z,16.60
2022-11-05T21:28:31.184Z,16.60
2022-11-05T21:30:57.681Z,16.60
2022-11-05T21:33:24.152Z,16.60
2022-11-05T21:35:50.657Z,16.60
2022-11-05T21:38:17.140Z,16.50
2022-11-05T21:40:43.652Z,16.50
2022-11-05T21:43:10.151Z,16.40
2022-11-05T21:45:36.666Z,16.50
2022-11-05T21:48:03.181Z,16.50
2022-11-05T21:50:29.989Z,16.40
2022-11-05T21:52:56.456Z,16.40
2022-11-05T21:55:22.963Z,16.40
2022-11-05T21:57:49.452Z,16.40
2022-11-05T22:00:15.941Z,16.50
2022-11-05T22:02:42.593Z,16.50
2022-11-05T22:05:09.183Z,16.50
2022-11-05T22:07:35.660Z,16.40
2022-11-05T22:10:02.167Z,16.40
2022-11-05T22:12:28.656Z,16.40
2022-11-05T22:14:55.139Z,16.40
2022-11-05T22:17:21.626Z,16.40
2022-11-05T22:19:51.801Z,16.40
2022-11-05T22:22:18.301Z,16.50
2022-11-05T22:24:44.773Z,16.50
2022-11-05T22:27:11.255Z,16.50
2022-11-05T22:29:37.734Z,16.50
2022-11-05T22:32:04.216Z,16.30
2022-11-05T22:34:30.702Z,16.40
2022-11-05T22:36:57.206Z,16.50
2022-11-05T22:39:23.677Z,16.50
2022-11-05T22:41:50.183Z,16.50
2022-11-05T22:44:16.739Z,16.40
2022-11-05T22:46:43.229Z,16.50
2022-11-05T22:49:09.713Z,16.40
2022-11-05T22:51:36.184Z,16.40
2022-11-05T22:54:02.679Z,16.40
2022-11-05T22:56:29.151Z,16.40
2022-11-05T22:58:55.621Z,16.40
2022-11-05T23:01:22.186Z,16.50
2022-11-05T23:03:51.707Z,16.40
2022-11-05T23:06:18.175Z,16.40
2022-11-05T23:08:44.656Z,16.30
2022-11-05T23:11:11.269Z,16.40
2022-11-05T23:13:37.758Z,16.40
2022-11-05T23:16:04.237Z,16.40
2022-11-05T23:18:30.706Z,16.40
2022-11-05T23:20:57.175Z,16.40
2022-11-05T23:23:23.654Z,16.30
2022-11-05T23:25:50.159Z,16.20
2022-11-05T23:28:16.741Z,16.30
2022-11-05T23:30:43.227Z,16.40
2022-11-05T23:33:09.696Z,16.40
2022-11-05T23:35:36.182Z,16.40
2022-11-05T23:38:02.684Z,16.30
2022-11-05T23:40:29.159Z,16.20
2022-11-05T23:42:55.627Z,16.30
2022-11-05T23:45:22.093Z,16.30
2022-11-05T23:47:48.555Z,16.30
2022-11-05T23:50:15.040Z,16.30
2022-11-05T23:52:41.558Z,16.30
2022-11-05T23:55:08.037Z,16.40
2022-11-05T23:57:34.517Z,16.40
